sensor_id;sensor_type;location;lat;lon;timestamp;temperature;humidity
68511;SHT31;55512;50.102;19.958;2024-03-02T00:01:55;8.28;77.01
68511;SHT31;55512;50.102;19.958;2024-03-02T00:04:21;8.27;77.05
68511;SHT31;55512;50.102;19.958;2024-03-02T00:06:52;8.26;77.07
68511;SHT31;55512;50.102;19.958;2024-03-02T00:09:27;8.25;77.10
68511;SHT31;55512;50.102;19.958;2024-03-02T00:12:00;8.24;77.10
68511;SHT31;55512;50.102;19.958;2024-03-02T00:14:29;8.23;77.10
68511;SHT31;55512;50.102;19.958;2024-03-02T00:16:55;8.22;77.10
68511;SHT31;55512;50.102;19.958;2024-03-02T00:19:38;8.20;77.18
68511;SHT31;55512;50.102;19.958;2024-03-02T00:22:10;8.18;77.20
68511;SHT31;55512;50.102;19.958;2024-03-02T00:24:36;8.16;77.20
68511;SHT31;55512;50.102;19.958;2024-03-02T00:27:03;8.15;77.27
68511;SHT31;55512;50.102;19.958;2024-03-02T00:29:35;8.14;77.29
68511;SHT31;55512;50.102;19.958;2024-03-02T00:32:01;8.12;77.30
68511;SHT31;55512;50.102;19.958;2024-03-02T00:34:27;8.11;77.31
68511;SHT31;55512;50.102;19.958;2024-03-02T00:37:01;8.09;77.31
68511;SHT31;55512;50.102;19.958;2024-03-02T00:39:27;8.09;77.43
68511;SHT31;55512;50.102;19.958;2024-03-02T00:41:57;8.10;77.64
68511;SHT31;55512;50.102;19.958;2024-03-02T00:44:25;8.09;77.72
68511;SHT31;55512;50.102;19.958;2024-03-02T00:46:59;8.08;77.63
68511;SHT31;55512;50.102;19.958;2024-03-02T00:49:25;8.06;77.54
68511;SHT31;55512;50.102;19.958;2024-03-02T00:51:53;8.07;77.54
68511;SHT31;55512;50.102;19.958;2024-03-02T00:54:20;8.07;77.67
68511;SHT31;55512;50.102;19.958;2024-03-02T00:56:49;8.08;77.70
68511;SHT31;55512;50.102;19.958;2024-03-02T00:59:16;8.09;77.70
68511;SHT31;55512;50.102;19.958;2024-03-02T01:01:47;8.09;77.66
68511;SHT31;55512;50.102;19.958;2024-03-02T01:06:51;8.08;77.60
68511;SHT31;55512;50.102;19.958;2024-03-02T01:09:17;8.08;77.60
68511;SHT31;55512;50.102;19.958;2024-03-02T01:11:43;8.08;77.61
68511;SHT31;55512;50.102;19.958;2024-03-02T01:14:09;8.08;77.64
68511;SHT31;55512;50.102;19.958;2024-03-02T01:16:35;8.09;77.70
68511;SHT31;55512;50.102;19.958;2024-03-02T01:19:04;8.09;77.70
68511;SHT31;55512;50.102;19.958;2024-03-02T01:21:30;8.11;77.74
68511;SHT31;55512;50.102;19.958;2024-03-02T01:23:55;8.12;77.79
68511;SHT31;55512;50.102;19.958;2024-03-02T01:26:21;8.12;77.81
68511;SHT31;55512;50.102;19.958;2024-03-02T01:28:52;8.14;77.86
68511;SHT31;55512;50.102;19.958;2024-03-02T01:31:18;8.15;77.80
68511;SHT31;55512;50.102;19.958;2024-03-02T01:33:44;8.15;77.80
68511;SHT31;55512;50.102;19.958;2024-03-02T01:36:12;8.15;77.79
68511;SHT31;55512;50.102;19.958;2024-03-02T01:38:46;8.15;77.80
68511;SHT31;55512;50.102;19.958;2024-03-02T01:41:15;8.16;77.80
68511;SHT31;55512;50.102;19.958;2024-03-02T01:43:48;8.17;77.80
68511;SHT31;55512;50.102;19.958;2024-03-02T01:46:34;8.17;77.80
68511;SHT31;55512;50.102;19.958;2024-03-02T01:49:10;8.16;77.80
68511;SHT31;55512;50.102;19.958;2024-03-02T01:51:36;8.17;77.80
68511;SHT31;55512;50.102;19.958;2024-03-02T01:54:04;8.17;77.80
68511;SHT31;55512;50.102;19.958;2024-03-02T01:56:37;8.17;77.80
68511;SHT31;55512;50.102;19.958;2024-03-02T01:59:03;8.16;77.80
68511;SHT31;55512;50.102;19.958;2024-03-02T02:01:32;8.16;77.80
68511;SHT31;55512;50.102;19.958;2024-03-02T02:03:58;8.15;77.78
68511;SHT31;55512;50.102;19.958;2024-03-02T02:06:24;8.15;77.76
68511;SHT31;55512;50.102;19.958;2024-03-02T02:08:52;8.13;77.73
68511;SHT31;55512;50.102;19.958;2024-03-02T02:11:27;8.13;77.74
68511;SHT31;55512;50.102;19.958;2024-03-02T02:13:58;8.09;77.78
68511;SHT31;55512;50.102;19.958;2024-03-02T02:16:25;8.07;77.81
68511;SHT31;55512;50.102;19.958;2024-03-02T02:18:53;8.05;77.84
68511;SHT31;55512;50.102;19.958;2024-03-02T02:21:22;8.03;77.87
68511;SHT31;55512;50.102;19.958;2024-03-02T02:23:59;8.02;77.87
68511;SHT31;55512;50.102;19.958;2024-03-02T02:26:29;8.00;77.80
68511;SHT31;55512;50.102;19.958;2024-03-02T02:28:57;7.98;77.80
68511;SHT31;55512;50.102;19.958;2024-03-02T02:31:23;7.94;77.80
68511;SHT31;55512;50.102;19.958;2024-03-02T02:33:51;7.90;77.80
68511;SHT31;55512;50.102;19.958;2024-03-02T02:36:38;7.86;77.80
68511;SHT31;55512;50.102;19.958;2024-03-02T02:39:05;7.83;77.89
68511;SHT31;55512;50.102;19.958;2024-03-02T02:41:39;7.81;77.90
68511;SHT31;55512;50.102;19.958;2024-03-02T02:44:21;7.77;77.93
68511;SHT31;55512;50.102;19.958;2024-03-02T02:46:52;7.75;78.00
68511;SHT31;55512;50.102;19.958;2024-03-02T02:49:21;7.72;78.00
68511;SHT31;55512;50.102;19.958;2024-03-02T02:51:46;7.70;78.00
68511;SHT31;55512;50.102;19.958;2024-03-02T02:54:18;7.67;78.04
68511;SHT31;55512;50.102;19.958;2024-03-02T02:56:47;7.64;78.19
68511;SHT31;55512;50.102;19.958;2024-03-02T02:59:12;7.59;78.28
68511;SHT31;55512;50.102;19.958;2024-03-02T03:01:38;7.59;78.29
68511;SHT31;55512;50.102;19.958;2024-03-02T03:04:13;7.55;78.30
68511;SHT31;55512;50.102;19.958;2024-03-02T03:06:41;7.53;78.37
68511;SHT31;55512;50.102;19.958;2024-03-02T03:09:10;7.52;78.40
68511;SHT31;55512;50.102;19.958;2024-03-02T03:11:38;7.52;78.43
68511;SHT31;55512;50.102;19.958;2024-03-02T03:14:17;7.49;78.50
68511;SHT31;55512;50.102;19.958;2024-03-02T03:16:45;7.48;78.59
68511;SHT31;55512;50.102;19.958;2024-03-02T03:19:13;7.46;78.60
68511;SHT31;55512;50.102;19.958;2024-03-02T03:21:39;7.46;78.58
68511;SHT31;55512;50.102;19.958;2024-03-02T03:24:05;7.45;78.60
68511;SHT31;55512;50.102;19.958;2024-03-02T03:26:31;7.44;78.60
68511;SHT31;55512;50.102;19.958;2024-03-02T03:28:57;7.43;78.61
68511;SHT31;55512;50.102;19.958;2024-03-02T03:31:28;7.42;78.60
68511;SHT31;55512;50.102;19.958;2024-03-02T03:39:52;7.40;78.60
68511;SHT31;55512;50.102;19.958;2024-03-02T03:42:39;7.37;78.70
68511;SHT31;55512;50.102;19.958;2024-03-02T03:45:08;7.34;78.79
68511;SHT31;55512;50.102;19.958;2024-03-02T03:47:34;7.33;78.91
68511;SHT31;55512;50.102;19.958;2024-03-02T03:50:06;7.31;79.03
68511;SHT31;55512;50.102;19.958;2024-03-02T03:52:33;7.28;79.03
68511;SHT31;55512;50.102;19.958;2024-03-02T03:54:59;7.27;79.00
68511;SHT31;55512;50.102;19.958;2024-03-02T03:57:27;7.25;78.97
68511;SHT31;55512;50.102;19.958;2024-03-02T04:00:03;7.22;78.99
68511;SHT31;55512;50.102;19.958;2024-03-02T04:02:35;7.24;79.00
68511;SHT31;55512;50.102;19.958;2024-03-02T04:05:26;7.23;79.01
68511;SHT31;55512;50.102;19.958;2024-03-02T04:09:04;7.21;79.00
68511;SHT31;55512;50.102;19.958;2024-03-02T04:11:39;7.18;79.00
68511;SHT31;55512;50.102;19.958;2024-03-02T04:14:10;7.14;79.00
68511;SHT31;55512;50.102;19.958;2024-03-02T04:16:36;7.12;79.01
68511;SHT31;55512;50.102;19.958;2024-03-02T04:19:07;7.08;79.07
68511;SHT31;55512;50.102;19.958;2024-03-02T04:21:33;7.07;79.09
68511;SHT31;55512;50.102;19.958;2024-03-02T04:24:02;7.04;79.10
68511;SHT31;55512;50.102;19.958;2024-03-02T04:26:28;7.01;79.10
68511;SHT31;55512;50.102;19.958;2024-03-02T04:28:54;6.99;79.16
68511;SHT31;55512;50.102;19.958;2024-03-02T04:31:20;6.97;79.18
68511;SHT31;55512;50.102;19.958;2024-03-02T04:33:54;6.94;79.10
68511;SHT31;55512;50.102;19.958;2024-03-02T04:36:20;6.91;79.20
68511;SHT31;55512;50.102;19.958;2024-03-02T04:38:52;6.90;79.20
68511;SHT31;55512;50.102;19.958;2024-03-02T04:41:18;6.88;79.20
68511;SHT31;55512;50.102;19.958;2024-03-02T04:43:44;6.86;79.20
68511;SHT31;55512;50.102;19.958;2024-03-02T04:46:13;6.83;79.25
68511;SHT31;55512;50.102;19.958;2024-03-02T04:48:44;6.82;79.34
68511;SHT31;55512;50.102;19.958;2024-03-02T04:51:10;6.82;79.45
68511;SHT31;55512;50.102;19.958;2024-03-02T04:53:38;6.83;79.79
68511;SHT31;55512;50.102;19.958;2024-03-02T04:56:09;6.82;79.90
68511;SHT31;55512;50.102;19.958;2024-03-02T04:58:53;6.82;79.92
68511;SHT31;55512;50.102;19.958;2024-03-02T05:01:24;6.80;79.98
68511;SHT31;55512;50.102;19.958;2024-03-02T05:03:50;6.79;79.90
68511;SHT31;55512;50.102;19.958;2024-03-02T05:06:19;6.79;79.90
68511;SHT31;55512;50.102;19.958;2024-03-02T05:08:45;6.78;79.88
68511;SHT31;55512;50.102;19.958;2024-03-02T05:11:13;6.76;79.83
68511;SHT31;55512;50.102;19.958;2024-03-02T05:14:14;6.74;79.87
68511;SHT31;55512;50.102;19.958;2024-03-02T05:16:40;6.72;79.84
68511;SHT31;55512;50.102;19.958;2024-03-02T05:19:08;6.69;79.82
68511;SHT31;55512;50.102;19.958;2024-03-02T05:21:34;6.65;79.83
68511;SHT31;55512;50.102;19.958;2024-03-02T05:24:00;6.62;79.89
68511;SHT31;55512;50.102;19.958;2024-03-02T05:26:29;6.61;79.95
68511;SHT31;55512;50.102;19.958;2024-03-02T05:28:54;6.62;80.00
68511;SHT31;55512;50.102;19.958;2024-03-02T05:31:25;6.63;80.00
68511;SHT31;55512;50.102;19.958;2024-03-02T05:33:54;6.62;80.00
68511;SHT31;55512;50.102;19.958;2024-03-02T05:36:20;6.62;80.00
68511;SHT31;55512;50.102;19.958;2024-03-02T05:38:48;6.61;80.00
68511;SHT31;55512;50.102;19.958;2024-03-02T05:41:17;6.62;80.07
68511;SHT31;55512;50.102;19.958;2024-03-02T05:43:46;6.65;80.14
68511;SHT31;55512;50.102;19.958;2024-03-02T05:46:12;6.68;80.19
68511;SHT31;55512;50.102;19.958;2024-03-02T05:48:38;6.70;80.25
68511;SHT31;55512;50.102;19.958;2024-03-02T05:51:07;6.75;80.31
68511;SHT31;55512;50.102;19.958;2024-03-02T05:53:35;6.80;80.46
68511;SHT31;55512;50.102;19.958;2024-03-02T05:56:04;6.83;80.63
68511;SHT31;55512;50.102;19.958;2024-03-02T05:58:30;6.89;80.60
68511;SHT31;55512;50.102;19.958;2024-03-02T06:01:16;6.93;80.74
68511;SHT31;55512;50.102;19.958;2024-03-02T06:03:47;6.95;80.81
68511;SHT31;55512;50.102;19.958;2024-03-02T06:06:15;6.97;80.79
68511;SHT31;55512;50.102;19.958;2024-03-02T06:08:41;7.02;80.71
68511;SHT31;55512;50.102;19.958;2024-03-02T06:11:07;7.07;80.64
68511;SHT31;55512;50.102;19.958;2024-03-02T06:13:33;7.11;80.58
68511;SHT31;55512;50.102;19.958;2024-03-02T06:15:58;7.16;80.51
68511;SHT31;55512;50.102;19.958;2024-03-02T06:18:24;7.19;80.48
68511;SHT31;55512;50.102;19.958;2024-03-02T06:20:50;7.20;80.46
68511;SHT31;55512;50.102;19.958;2024-03-02T06:23:15;7.26;80.40
68511;SHT31;55512;50.102;19.958;2024-03-02T06:25:41;7.32;80.39
68511;SHT31;55512;50.102;19.958;2024-03-02T06:28:06;7.38;80.33
68511;SHT31;55512;50.102;19.958;2024-03-02T06:30:32;7.44;80.30
68511;SHT31;55512;50.102;19.958;2024-03-02T06:32:57;7.52;80.23
68511;SHT31;55512;50.102;19.958;2024-03-02T06:35:23;7.60;80.19
68511;SHT31;55512;50.102;19.958;2024-03-02T06:37:49;7.67;80.11
68511;SHT31;55512;50.102;19.958;2024-03-02T06:40:16;7.73;80.09
68511;SHT31;55512;50.102;19.958;2024-03-02T06:42:41;7.78;80.03
68511;SHT31;55512;50.102;19.958;2024-03-02T06:45:07;7.83;80.00
68511;SHT31;55512;50.102;19.958;2024-03-02T06:47:33;7.87;79.91
68511;SHT31;55512;50.102;19.958;2024-03-02T06:49:58;7.91;79.90
68511;SHT31;55512;50.102;19.958;2024-03-02T06:52:24;7.94;79.86
68511;SHT31;55512;50.102;19.958;2024-03-02T06:54:50;7.98;79.80
68511;SHT31;55512;50.102;19.958;2024-03-02T06:57:16;8.01;79.79
68511;SHT31;55512;50.102;19.958;2024-03-02T06:59:42;8.05;79.74
68511;SHT31;55512;50.102;19.958;2024-03-02T07:02:10;8.09;79.70
68511;SHT31;55512;50.102;19.958;2024-03-02T07:04:36;8.13;79.65
68511;SHT31;55512;50.102;19.958;2024-03-02T07:07:02;8.17;79.60
68511;SHT31;55512;50.102;19.958;2024-03-02T07:09:28;8.22;79.53
68511;SHT31;55512;50.102;19.958;2024-03-02T07:11:53;8.28;79.50
68511;SHT31;55512;50.102;19.958;2024-03-02T07:14:19;8.36;79.37
68511;SHT31;55512;50.102;19.958;2024-03-02T07:16:45;8.43;79.22
68511;SHT31;55512;50.102;19.958;2024-03-02T07:19:22;8.50;79.08
68511;SHT31;55512;50.102;19.958;2024-03-02T07:21:48;8.54;78.98
68511;SHT31;55512;50.102;19.958;2024-03-02T07:24:26;8.56;78.99
68511;SHT31;55512;50.102;19.958;2024-03-02T07:26:52;8.65;78.91
68511;SHT31;55512;50.102;19.958;2024-03-02T07:29:21;8.71;78.82
68511;SHT31;55512;50.102;19.958;2024-03-02T07:31:47;8.73;78.71
68511;SHT31;55512;50.102;19.958;2024-03-02T07:34:13;8.79;78.70
68511;SHT31;55512;50.102;19.958;2024-03-02T07:36:51;8.89;78.64
68511;SHT31;55512;50.102;19.958;2024-03-02T07:39:18;8.99;78.54
68511;SHT31;55512;50.102;19.958;2024-03-02T07:41:46;9.08;78.44
68511;SHT31;55512;50.102;19.958;2024-03-02T07:44:16;9.17;78.39
68511;SHT31;55512;50.102;19.958;2024-03-02T07:46:44;9.27;78.28
68511;SHT31;55512;50.102;19.958;2024-03-02T07:49:20;9.38;78.17
68511;SHT31;55512;50.102;19.958;2024-03-02T07:51:46;9.48;77.99
68511;SHT31;55512;50.102;19.958;2024-03-02T07:54:12;9.54;77.80
68511;SHT31;55512;50.102;19.958;2024-03-02T07:56:38;9.56;77.70
68511;SHT31;55512;50.102;19.958;2024-03-02T07:59:04;9.62;77.62
68511;SHT31;55512;50.102;19.958;2024-03-02T08:01:31;9.70;77.50
68511;SHT31;55512;50.102;19.958;2024-03-02T08:03:57;9.78;77.38
68511;SHT31;55512;50.102;19.958;2024-03-02T08:06:28;9.87;77.30
68511;SHT31;55512;50.102;19.958;2024-03-02T08:08:55;9.98;77.16
68511;SHT31;55512;50.102;19.958;2024-03-02T08:11:34;10.06;76.97
68511;SHT31;55512;50.102;19.958;2024-03-02T08:14:05;10.14;76.79
68511;SHT31;55512;50.102;19.958;2024-03-02T08:16:30;10.21;76.61
68511;SHT31;55512;50.102;19.958;2024-03-02T08:19:09;10.25;76.38
68511;SHT31;55512;50.102;19.958;2024-03-02T08:21:35;10.31;76.26
68511;SHT31;55512;50.102;19.958;2024-03-02T08:24:02;10.39;76.15
68511;SHT31;55512;50.102;19.958;2024-03-02T08:26:28;10.47;76.02
68511;SHT31;55512;50.102;19.958;2024-03-02T08:28:58;10.55;75.88
68511;SHT31;55512;50.102;19.958;2024-03-02T08:31:28;10.61;75.68
68511;SHT31;55512;50.102;19.958;2024-03-02T08:33:55;10.65;75.52
68511;SHT31;55512;50.102;19.958;2024-03-02T08:36:26;10.69;75.39
68511;SHT31;55512;50.102;19.958;2024-03-02T08:38:52;10.75;75.27
68511;SHT31;55512;50.102;19.958;2024-03-02T08:41:25;10.81;75.14
68511;SHT31;55512;50.102;19.958;2024-03-02T08:43:51;10.86;74.97
68511;SHT31;55512;50.102;19.958;2024-03-02T08:46:20;10.90;74.80
68511;SHT31;55512;50.102;19.958;2024-03-02T08:48:46;10.97;74.69
68511;SHT31;55512;50.102;19.958;2024-03-02T08:51:11;11.00;74.56
68511;SHT31;55512;50.102;19.958;2024-03-02T08:53:41;11.03;74.45
68511;SHT31;55512;50.102;19.958;2024-03-02T08:56:12;11.06;74.35
68511;SHT31;55512;50.102;19.958;2024-03-02T08:58:38;11.09;74.26
68511;SHT31;55512;50.102;19.958;2024-03-02T09:01:04;11.11;74.21
68511;SHT31;55512;50.102;19.958;2024-03-02T09:03:31;11.14;74.17
68511;SHT31;55512;50.102;19.958;2024-03-02T09:06:00;11.18;74.10
68511;SHT31;55512;50.102;19.958;2024-03-02T09:08:29;11.22;74.02
68511;SHT31;55512;50.102;19.958;2024-03-02T09:10:58;11.26;73.93
68511;SHT31;55512;50.102;19.958;2024-03-02T09:13:24;11.28;73.83
68511;SHT31;55512;50.102;19.958;2024-03-02T09:15:52;11.28;73.75
68511;SHT31;55512;50.102;19.958;2024-03-02T09:18:18;11.30;73.69
68511;SHT31;55512;50.102;19.958;2024-03-02T09:20:44;11.32;73.60
68511;SHT31;55512;50.102;19.958;2024-03-02T09:23:11;11.34;73.59
68511;SHT31;55512;50.102;19.958;2024-03-02T09:25:40;11.35;73.54
68511;SHT31;55512;50.102;19.958;2024-03-02T09:28:15;11.37;73.49
68511;SHT31;55512;50.102;19.958;2024-03-02T09:30:41;11.40;73.40
68511;SHT31;55512;50.102;19.958;2024-03-02T09:33:07;11.45;73.34
68511;SHT31;55512;50.102;19.958;2024-03-02T09:35:35;11.48;73.28
68511;SHT31;55512;50.102;19.958;2024-03-02T09:38:24;11.54;73.21
68511;SHT31;55512;50.102;19.958;2024-03-02T09:40:52;11.59;73.15
68511;SHT31;55512;50.102;19.958;2024-03-02T09:43:24;11.63;73.06
68511;SHT31;55512;50.102;19.958;2024-03-02T09:46:02;11.68;72.97
68511;SHT31;55512;50.102;19.958;2024-03-02T09:48:29;11.70;72.90
68511;SHT31;55512;50.102;19.958;2024-03-02T09:50:55;11.73;72.87
68511;SHT31;55512;50.102;19.958;2024-03-02T09:53:21;11.76;72.78
68511;SHT31;55512;50.102;19.958;2024-03-02T09:55:58;11.77;72.70
68511;SHT31;55512;50.102;19.958;2024-03-02T09:58:43;11.79;72.61
68511;SHT31;55512;50.102;19.958;2024-03-02T10:04:49;11.87;72.50
68511;SHT31;55512;50.102;19.958;2024-03-02T10:07:27;11.89;72.43
68511;SHT31;55512;50.102;19.958;2024-03-02T10:09:56;11.90;72.38
68511;SHT31;55512;50.102;19.958;2024-03-02T10:12:42;11.94;72.32
68511;SHT31;55512;50.102;19.958;2024-03-02T10:15:11;12.00;72.29
68511;SHT31;55512;50.102;19.958;2024-03-02T10:17:37;12.07;72.20
68511;SHT31;55512;50.102;19.958;2024-03-02T10:20:21;12.12;72.11
68511;SHT31;55512;50.102;19.958;2024-03-02T10:22:51;12.17;72.06
68511;SHT31;55512;50.102;19.958;2024-03-02T10:26:20;12.25;71.99
68511;SHT31;55512;50.102;19.958;2024-03-02T10:28:17;12.34;71.83
68511;SHT31;55512;50.102;19.958;2024-03-02T10:30:43;12.41;71.74
68511;SHT31;55512;50.102;19.958;2024-03-02T10:33:14;12.43;71.63
68511;SHT31;55512;50.102;19.958;2024-03-02T10:35:40;12.46;71.60
68511;SHT31;55512;50.102;19.958;2024-03-02T10:38:10;12.49;71.51
68511;SHT31;55512;50.102;19.958;2024-03-02T10:40:37;12.56;71.49
68511;SHT31;55512;50.102;19.958;2024-03-02T10:43:05;12.65;71.33
68511;SHT31;55512;50.102;19.958;2024-03-02T10:45:32;12.73;71.14
68511;SHT31;55512;50.102;19.958;2024-03-02T10:48:01;12.78;70.94
68511;SHT31;55512;50.102;19.958;2024-03-02T10:50:31;12.80;70.75
68511;SHT31;55512;50.102;19.958;2024-03-02T10:52:57;12.85;70.68
68511;SHT31;55512;50.102;19.958;2024-03-02T10:55:23;12.91;70.53
68511;SHT31;55512;50.102;19.958;2024-03-02T10:57:53;12.92;70.39
68511;SHT31;55512;50.102;19.958;2024-03-02T11:00:21;12.96;70.37
68511;SHT31;55512;50.102;19.958;2024-03-02T11:03:04;13.00;70.16
68511;SHT31;55512;50.102;19.958;2024-03-02T11:05:31;12.93;69.68
68511;SHT31;55512;50.102;19.958;2024-03-02T11:08:15;12.89;69.95
68511;SHT31;55512;50.102;19.958;2024-03-02T11:10:51;12.96;69.99
68511;SHT31;55512;50.102;19.958;2024-03-02T11:13:33;13.06;69.91
68511;SHT31;55512;50.102;19.958;2024-03-02T11:16:03;13.16;69.69
68511;SHT31;55512;50.102;19.958;2024-03-02T11:18:39;13.31;69.54
68511;SHT31;55512;50.102;19.958;2024-03-02T11:21:07;13.43;69.29
68511;SHT31;55512;50.102;19.958;2024-03-02T11:23:33;13.55;69.17
68511;SHT31;55512;50.102;19.958;2024-03-02T11:28:45;13.90;68.82
68511;SHT31;55512;50.102;19.958;2024-03-02T11:31:12;14.08;68.57
68511;SHT31;55512;50.102;19.958;2024-03-02T11:33:40;14.23;68.30
68511;SHT31;55512;50.102;19.958;2024-03-02T11:36:06;14.32;67.91
68511;SHT31;55512;50.102;19.958;2024-03-02T11:38:33;14.41;67.72
68511;SHT31;55512;50.102;19.958;2024-03-02T11:41:01;14.48;67.57
68511;SHT31;55512;50.102;19.958;2024-03-02T11:43:37;14.63;67.42
68511;SHT31;55512;50.102;19.958;2024-03-02T11:46:07;14.75;67.18
68511;SHT31;55512;50.102;19.958;2024-03-02T11:48:33;14.85;66.86
68511;SHT31;55512;50.102;19.958;2024-03-02T11:51:02;14.84;66.59
68511;SHT31;55512;50.102;19.958;2024-03-02T11:53:28;14.89;66.70
68511;SHT31;55512;50.102;19.958;2024-03-02T11:55:57;14.99;66.59
68511;SHT31;55512;50.102;19.958;2024-03-02T11:58:24;15.08;66.40
68511;SHT31;55512;50.102;19.958;2024-03-02T12:00:53;15.11;66.03
68511;SHT31;55512;50.102;19.958;2024-03-02T12:03:21;15.10;65.89
68511;SHT31;55512;50.102;19.958;2024-03-02T12:05:50;15.11;65.89
68511;SHT31;55512;50.102;19.958;2024-03-02T12:08:26;15.18;65.81
68511;SHT31;55512;50.102;19.958;2024-03-02T12:11:01;15.21;65.65
68511;SHT31;55512;50.102;19.958;2024-03-02T12:13:31;15.24;65.54
68511;SHT31;55512;50.102;19.958;2024-03-02T12:16:23;15.29;65.42
68511;SHT31;55512;50.102;19.958;2024-03-02T12:18:58;15.31;65.29
68511;SHT31;55512;50.102;19.958;2024-03-02T12:21:24;15.29;65.14
68511;SHT31;55512;50.102;19.958;2024-03-02T12:23:53;15.19;65.09
68511;SHT31;55512;50.102;19.958;2024-03-02T12:26:19;15.11;65.12
68511;SHT31;55512;50.102;19.958;2024-03-02T12:28:48;15.07;65.23
68511;SHT31;55512;50.102;19.958;2024-03-02T12:31:14;15.07;65.27
68511;SHT31;55512;50.102;19.958;2024-03-02T12:36:16;15.05;65.13
68511;SHT31;55512;50.102;19.958;2024-03-02T12:38:48;15.04;65.18
68511;SHT31;55512;50.102;19.958;2024-03-02T12:41:38;15.02;64.95
68511;SHT31;55512;50.102;19.958;2024-03-02T12:44:07;15.01;65.02
68511;SHT31;55512;50.102;19.958;2024-03-02T12:46:33;15.03;65.05
68511;SHT31;55512;50.102;19.958;2024-03-02T12:49:10;15.06;64.99
68511;SHT31;55512;50.102;19.958;2024-03-02T12:51:39;15.09;64.78
68511;SHT31;55512;50.102;19.958;2024-03-02T12:54:09;15.07;64.50
68511;SHT31;55512;50.102;19.958;2024-03-02T12:56:49;15.10;64.49
68511;SHT31;55512;50.102;19.958;2024-03-02T12:59:20;15.16;64.33
68511;SHT31;55512;50.102;19.958;2024-03-02T13:01:54;15.28;64.33
68511;SHT31;55512;50.102;19.958;2024-03-02T13:04:28;15.37;64.06
68511;SHT31;55512;50.102;19.958;2024-03-02T13:07:01;15.44;63.91
68511;SHT31;55512;50.102;19.958;2024-03-02T13:09:31;15.48;63.50
68511;SHT31;55512;50.102;19.958;2024-03-02T13:12:12;15.54;63.67
68511;SHT31;55512;50.102;19.958;2024-03-02T13:14:47;15.67;63.52
68511;SHT31;55512;50.102;19.958;2024-03-02T13:17:45;15.77;63.21
68511;SHT31;55512;50.102;19.958;2024-03-02T13:21:14;15.89;63.03
68511;SHT31;55512;50.102;19.958;2024-03-02T13:24:11;15.99;62.88
68511;SHT31;55512;50.102;19.958;2024-03-02T13:27:00;16.00;62.43
68511;SHT31;55512;50.102;19.958;2024-03-02T13:29:32;16.04;62.36
68511;SHT31;55512;50.102;19.958;2024-03-02T13:32:50;15.97;62.31
68511;SHT31;55512;50.102;19.958;2024-03-02T13:35:43;15.97;62.44
68511;SHT31;55512;50.102;19.958;2024-03-02T13:42:25;15.88;62.21
68511;SHT31;55512;50.102;19.958;2024-03-02T13:44:52;15.88;62.23
68511;SHT31;55512;50.102;19.958;2024-03-02T13:50:50;15.82;62.01
68511;SHT31;55512;50.102;19.958;2024-03-02T13:53:43;15.73;62.15
68511;SHT31;55512;50.102;19.958;2024-03-02T13:56:11;15.70;62.11
68511;SHT31;55512;50.102;19.958;2024-03-02T13:58:59;15.73;62.19
68511;SHT31;55512;50.102;19.958;2024-03-02T14:01:36;15.76;62.13
68511;SHT31;55512;50.102;19.958;2024-03-02T14:04:11;15.78;62.27
68511;SHT31;55512;50.102;19.958;2024-03-02T14:06:50;15.82;62.23
68511;SHT31;55512;50.102;19.958;2024-03-02T14:09:28;15.81;61.82
68511;SHT31;55512;50.102;19.958;2024-03-02T14:11:54;15.66;61.63
68511;SHT31;55512;50.102;19.958;2024-03-02T14:14:24;15.54;61.69
68511;SHT31;55512;50.102;19.958;2024-03-02T14:16:55;15.49;61.82
68511;SHT31;55512;50.102;19.958;2024-03-02T14:19:31;15.53;61.94
68511;SHT31;55512;50.102;19.958;2024-03-02T14:22:08;15.59;61.82
68511;SHT31;55512;50.102;19.958;2024-03-02T14:24:34;15.60;61.72
68511;SHT31;55512;50.102;19.958;2024-03-02T14:27:00;15.62;61.79
68511;SHT31;55512;50.102;19.958;2024-03-02T14:29:30;15.64;61.85
68511;SHT31;55512;50.102;19.958;2024-03-02T14:31:58;15.61;61.84
68511;SHT31;55512;50.102;19.958;2024-03-02T14:34:29;15.61;62.02
68511;SHT31;55512;50.102;19.958;2024-03-02T14:37:04;15.62;62.08
68511;SHT31;55512;50.102;19.958;2024-03-02T14:39:33;15.61;62.01
68511;SHT31;55512;50.102;19.958;2024-03-02T14:42:00;15.60;62.04
68511;SHT31;55512;50.102;19.958;2024-03-02T14:44:26;15.60;62.10
68511;SHT31;55512;50.102;19.958;2024-03-02T14:46:52;15.59;62.20
68511;SHT31;55512;50.102;19.958;2024-03-02T14:49:18;15.57;62.20
68511;SHT31;55512;50.102;19.958;2024-03-02T14:51:50;15.54;62.25
68511;SHT31;55512;50.102;19.958;2024-03-02T14:54:16;15.52;62.30
68511;SHT31;55512;50.102;19.958;2024-03-02T14:56:46;15.48;62.38
68511;SHT31;55512;50.102;19.958;2024-03-02T14:59:22;15.43;62.47
68511;SHT31;55512;50.102;19.958;2024-03-02T15:01:50;15.39;62.66
68511;SHT31;55512;50.102;19.958;2024-03-02T15:07:05;15.30;62.88
68511;SHT31;55512;50.102;19.958;2024-03-02T15:09:31;15.27;62.98
68511;SHT31;55512;50.102;19.958;2024-03-02T15:11:59;15.20;63.13
68511;SHT31;55512;50.102;19.958;2024-03-02T15:14:45;15.14;63.28
68511;SHT31;55512;50.102;19.958;2024-03-02T15:17:13;15.12;63.46
68511;SHT31;55512;50.102;19.958;2024-03-02T15:19:43;15.06;63.63
68511;SHT31;55512;50.102;19.958;2024-03-02T15:22:10;15.02;63.72
68511;SHT31;55512;50.102;19.958;2024-03-02T15:24:57;14.97;63.90
68511;SHT31;55512;50.102;19.958;2024-03-02T15:27:23;14.91;64.09
68511;SHT31;55512;50.102;19.958;2024-03-02T15:29:52;14.86;64.30
68511;SHT31;55512;50.102;19.958;2024-03-02T15:32:24;14.83;64.43
68511;SHT31;55512;50.102;19.958;2024-03-02T15:34:54;14.78;64.64
68511;SHT31;55512;50.102;19.958;2024-03-02T15:37:20;14.73;64.80
68511;SHT31;55512;50.102;19.958;2024-03-02T15:39:49;14.64;65.00
68511;SHT31;55512;50.102;19.958;2024-03-02T15:42:38;14.58;65.14
68511;SHT31;55512;50.102;19.958;2024-03-02T15:45:06;14.52;65.32
68511;SHT31;55512;50.102;19.958;2024-03-02T15:47:35;14.46;65.44
68511;SHT31;55512;50.102;19.958;2024-03-02T15:50:10;14.41;65.60
68511;SHT31;55512;50.102;19.958;2024-03-02T15:52:40;14.35;65.76
68511;SHT31;55512;50.102;19.958;2024-03-02T15:55:10;14.28;65.88
68511;SHT31;55512;50.102;19.958;2024-03-02T15:57:36;14.21;66.01
68511;SHT31;55512;50.102;19.958;2024-03-02T16:00:02;14.14;66.09
68511;SHT31;55512;50.102;19.958;2024-03-02T16:02:30;14.05;66.23
68511;SHT31;55512;50.102;19.958;2024-03-02T16:04:58;13.94;66.36
68511;SHT31;55512;50.102;19.958;2024-03-02T16:07:36;13.85;66.58
68511;SHT31;55512;50.102;19.958;2024-03-02T16:10:05;13.78;66.72
68511;SHT31;55512;50.102;19.958;2024-03-02T16:12:35;13.70;66.87